Time;durP1;ratioP1;P1;durP2;ratioP2;P2;SDS_P1;SDS_P2;PMS_P1;PMS_P2;Temp;Humidity;BMP_temperature;BMP_pressure;BME280_temperature;BME280_humidity;BME280_pressure;Samples;Min_cycle;Max_cycle;Signal;HPM_P1;HPM_P2
2024/01/20 00:00:01;;;;;;;14.70;7.47;;;;;;;-146.25;100.00;52680.47;2023221;29;35328;-63
2024/01/20 00:01:03;;;;;;;19.30;8.73;;;;;;;-146.25;100.00;52694.66;2023917;29;36008;-63
2024/01/20 00:02:05;;;;;;;13.13;7.88;;;;;;;-146.25;100.00;52706.81;2023511;29;34320;-63
2024/01/20 00:03:06;;;;;;;13.25;7.65;;;;;;;-146.25;100.00;52729.13;2023558;29;35010;-63
2024/01/20 00:04:10;;;;;;;16.13;8.43;;;;;;;-146.25;100.00;52684.50;2023567;29;33431;-63
2024/01/20 00:05:15;;;;;;;15.60;8.25;;;;;;;-146.25;100.00;52684.50;2024228;29;20080;-64
2024/01/20 00:06:17;;;;;;;13.13;8.05;;;;;;;-146.25;100.00;52718.97;2023160;29;37814;-63
2024/01/20 00:07:19;;;;;;;15.25;8.77;;;;;;;-146.25;100.00;52680.47;2024458;29;20033;-63
2024/01/20 00:08:21;;;;;;;17.30;8.63;;;;;;;-146.25;100.00;52676.41;2023066;29;34696;-63
2024/01/20 00:09:23;;;;;;;15.50;8.77;;;;;;;-146.25;100.00;52678.44;2023859;29;31983;-63
2024/01/20 00:10:31;;;;;;;16.50;8.70;;;;;;;-146.25;100.00;52686.53;2023548;29;31520;-63
2024/01/20 00:11:35;;;;;;;14.07;8.73;;;;;;;-146.25;100.00;52700.72;2023965;29;31626;-64
2024/01/20 00:12:39;;;;;;;13.43;8.68;;;;;;;-146.25;100.00;52652.06;2023949;29;20159;-63
2024/01/20 00:13:42;;;;;;;17.23;9.32;;;;;;;-146.25;100.00;52684.50;2022253;29;35275;-63
2024/01/20 00:14:44;;;;;;;14.30;9.35;;;;;;;-146.25;100.00;52682.47;2024724;29;20057;-63
2024/01/20 00:15:45;;;;;;;17.40;9.13;;;;;;;-146.25;100.00;52639.91;2025314;29;31813;-63
2024/01/20 00:16:47;;;;;;;18.55;9.38;;;;;;;-146.25;100.00;52650.03;2025003;29;31941;-63
2024/01/20 00:17:49;;;;;;;13.63;9.27;;;;;;;-146.25;100.00;52688.56;2025502;29;20045;-63
2024/01/20 00:18:51;;;;;;;15.20;8.77;;;;;;;-146.25;100.00;52698.72;2024782;29;34937;-63
2024/01/20 00:19:53;;;;;;;16.95;9.93;;;;;;;-146.25;100.00;52660.19;2025230;29;32323;-63
2024/01/20 00:20:56;;;;;;;15.68;9.68;;;;;;;-146.25;100.00;52721.00;2025075;29;35087;-63
2024/01/20 00:21:58;;;;;;;18.25;10.05;;;;;;;-146.25;100.00;52712.91;2025737;29;20049;-63
2024/01/20 00:23:00;;;;;;;18.23;9.63;;;;;;;-146.25;100.00;52696.69;2024797;29;35446;-63
2024/01/20 00:24:02;;;;;;;13.68;8.90;;;;;;;-146.25;100.00;52694.66;2024887;29;32687;-63
2024/01/20 00:25:04;;;;;;;19.63;10.15;;;;;;;-146.25;100.00;52696.69;2024963;29;31508;-62
2024/01/20 00:26:06;;;;;;;17.77;9.52;;;;;;;-146.25;100.00;52690.59;2024653;29;37577;-63
2024/01/20 00:27:08;;;;;;;14.07;9.20;;;;;;;-146.25;100.00;52682.47;2025544;29;20047;-63
2024/01/20 00:28:10;;;;;;;17.08;10.52;;;;;;;-146.25;100.00;52704.78;2024960;29;33069;-63
2024/01/20 00:29:12;;;;;;;15.50;9.95;;;;;;;-146.25;100.00;52708.84;2024513;29;34742;-63
2024/01/20 00:30:16;;;;;;;20.65;9.90;;;;;;;-146.25;100.00;52704.78;2024556;29;33080;-63
2024/01/20 00:31:18;;;;;;;13.82;9.48;;;;;;;-146.25;100.00;52684.50;2024191;29;35594;-63
2024/01/20 00:32:20;;;;;;;15.32;10.18;;;;;;;-146.25;100.00;52716.97;2024892;29;36647;-63
2024/01/20 00:33:22;;;;;;;14.43;10.45;;;;;;;-146.25;100.00;52718.97;2024595;29;33822;-63
2024/01/20 00:34:24;;;;;;;15.98;10.75;;;;;;;-146.25;100.00;52662.22;2024335;29;38107;-63
2024/01/20 00:35:26;;;;;;;17.45;9.98;;;;;;;-146.25;100.00;52716.97;2024729;29;33849;-63
2024/01/20 00:36:27;;;;;;;17.40;10.90;;;;;;;-146.25;100.00;52694.66;2025161;29;34114;-63
2024/01/20 00:37:29;;;;;;;17.88;10.07;;;;;;;-146.25;100.00;52716.97;2024837;29;37498;-63
2024/01/20 00:38:33;;;;;;;17.27;10.35;;;;;;;-146.25;100.00;52741.28;2024722;29;37924;-63
2024/01/20 00:39:34;;;;;;;22.73;10.93;;;;;;;-146.25;100.00;52692.63;2024384;29;33655;-63
2024/01/20 00:40:36;;;;;;;15.32;10.30;;;;;;;-146.25;100.00;52668.28;2024237;29;37022;-62
2024/01/20 00:41:41;;;;;;;17.05;10.13;;;;;;;-146.25;100.00;52684.50;2025285;29;20872;-63
2024/01/20 00:42:46;;;;;;;18.40;9.88;;;;;;;-146.25;100.00;52668.28;2025584;29;20037;-63
2024/01/20 00:43:48;;;;;;;22.55;10.85;;;;;;;-146.25;100.00;52672.34;2025209;29;34934;-63
2024/01/20 00:44:52;;;;;;;19.67;10.73;;;;;;;-146.25;100.00;52694.66;2025627;29;20041;-62
2024/01/20 00:45:53;;;;;;;15.93;11.13;;;;;;;-146.25;100.00;52692.63;2024732;29;34850;-63
2024/01/20 00:46:57;;;;;;;20.38;11.00;;;;;;;-146.25;100.00;52700.72;2024866;29;36953;-63
2024/01/20 00:47:59;;;;;;;18.73;10.38;;;;;;;-146.25;100.00;52694.66;2024632;29;33548;-63
2024/01/20 00:49:03;;;;;;;17.02;10.55;;;;;;;-146.25;100.00;52670.31;2025072;29;36658;-63
2024/01/20 00:50:07;;;;;;;16.95;10.50;;;;;;;-146.25;100.00;52686.53;2024827;29;35850;-63
2024/01/20 00:51:08;;;;;;;19.50;11.15;;;;;;;-146.25;100.00;52684.50;2024938;29;35857;-63
2024/01/20 00:52:10;;;;;;;18.33;11.10;;;;;;;-146.25;100.00;52700.72;2024925;29;34788;-63
2024/01/20 00:53:12;;;;;;;18.42;10.32;;;;;;;-146.25;100.00;52678.44;2024894;29;33656;-63
2024/01/20 00:54:14;;;;;;;20.48;11.13;;;;;;;-146.25;100.00;52674.38;2024548;29;36609;-63
2024/01/20 00:55:19;;;;;;;16.25;11.00;;;;;;;-146.25;100.00;52696.69;2025190;29;32458;-63
2024/01/20 00:56:21;;;;;;;18.35;10.45;;;;;;;-146.25;100.00;52700.72;2024676;29;36381;-63
2024/01/20 00:57:26;;;;;;;15.07;10.77;;;;;;;-146.25;100.00;52668.28;2025311;29;20045;-62
2024/01/20 00:58:27;;;;;;;18.20;11.43;;;;;;;-146.25;100.00;52674.38;2024625;29;32891;-63
2024/01/20 00:59:29;;;;;;;16.48;11.35;;;;;;;-146.25;100.00;52656.13;2024633;29;36057;-63
2024/01/20 01:00:31;;;;;;;17.30;11.85;;;;;;;-146.25;100.00;52702.75;2024375;29;37539;-62
2024/01/20 01:01:34;;;;;;;17.08;11.13;;;;;;;-146.25;100.00;52716.97;2024812;29;35861;-63
2024/01/20 01:02:37;;;;;;;14.85;10.75;;;;;;;-146.25;100.00;52727.09;2024844;29;31937;-63
2024/01/20 01:03:38;;;;;;;18.25;11.65;;;;;;;-146.25;100.00;52704.78;2024850;29;35797;-63
2024/01/20 01:04:40;;;;;;;22.38;12.32;;;;;;;-146.25;100.00;52704.78;2024721;29;35858;-63
2024/01/20 01:05:47;;;;;;;20.73;13.00;;;;;;;-146.25;100.00;52749.41;2024965;29;34106;-63
2024/01/20 01:06:49;;;;;;;16.60;11.65;;;;;;;-146.25;100.00;52718.97;2024365;29;37199;-63
2024/01/20 01:07:51;;;;;;;14.93;11.50;;;;;;;-146.25;100.00;52680.47;2024697;29;33917;-63
2024/01/20 01:08:53;;;;;;;18.45;12.15;;;;;;;-146.25;100.00;52692.63;2025491;29;20151;-62
2024/01/20 01:09:55;;;;;;;19.70;12.30;;;;;;;-146.25;100.00;52708.84;2025009;29;33184;-62
2024/01/20 01:10:56;;;;;;;20.48;12.10;;;;;;;-146.25;100.00;52694.66;2024418;29;32798;-63
2024/01/20 01:11:58;;;;;;;23.13;12.65;;;;;;;-146.25;100.00;52696.69;2025107;29;27673;-63
2024/01/20 01:13:00;;;;;;;20.08;12.35;;;;;;;-146.25;100.00;52688.56;2025180;29;20072;-63
2024/01/20 01:14:02;;;;;;;20.65;12.77;;;;;;;-146.25;100.00;52721.00;2025151;29;27641;-63
2024/01/20 01:15:05;;;;;;;19.48;12.07;;;;;;;-146.25;100.00;52710.88;2025277;29;20096;-62
2024/01/20 01:16:09;;;;;;;19.67;12.20;;;;;;;-146.25;100.00;52708.84;2024893;29;29152;-63
2024/01/20 01:17:11;;;;;;;18.67;12.98;;;;;;;-146.25;100.00;52684.50;2024572;29;30185;-62
2024/01/20 01:18:12;;;;;;;20.90;12.73;;;;;;;-146.25;100.00;52680.47;2024716;29;25772;-63
2024/01/20 01:19:15;;;;;;;24.25;13.38;;;;;;;-146.25;100.00;52694.66;2024737;29;24360;-63
2024/01/20 01:20:17;;;;;;;22.00;13.68;;;;;;;-146.25;100.00;52688.56;2024806;29;29584;-62
2024/01/20 01:21:19;;;;;;;19.08;12.30;;;;;;;-146.25;100.00;52684.50;2025069;29;25209;-62
2024/01/20 01:22:21;;;;;;;21.80;13.75;;;;;;;-146.25;100.00;52680.47;2024490;29;35685;-63
2024/01/20 01:23:22;;;;;;;19.10;13.50;;;;;;;-146.25;100.00;52690.59;2024551;29;33061;-63
2024/01/20 01:24:24;;;;;;;19.73;13.20;;;;;;;-146.25;100.00;52696.69;2023894;29;40546;-63
2024/01/20 01:25:28;;;;;;;21.42;12.68;;;;;;;-146.25;100.00;52688.56;2023547;29;36971;-63
2024/01/20 01:26:30;;;;;;;22.40;14.43;;;;;;;-146.25;100.00;52668.28;2024906;29;31431;-63
2024/01/20 01:27:35;;;;;;;20.85;14.30;;;;;;;-146.25;100.00;52645.97;2024795;29;37120;-61
2024/01/20 01:28:39;;;;;;;23.10;14.15;;;;;;;-146.25;100.00;52682.47;2024614;29;33233;-63
2024/01/20 01:29:41;;;;;;;21.60;13.82;;;;;;;-146.25;100.00;52688.56;2024097;29;35564;-63
2024/01/20 01:30:47;;;;;;;23.77;13.95;;;;;;;-146.25;100.00;52690.59;2024888;29;32540;-63
2024/01/20 01:31:48;;;;;;;22.10;14.70;;;;;;;-146.25;100.00;52694.66;2023985;29;35818;-63
2024/01/20 01:32:50;;;;;;;21.67;14.63;;;;;;;-146.25;100.00;52684.50;2023702;29;37724;-63
2024/01/20 01:33:52;;;;;;;27.40;15.20;;;;;;;-146.25;100.00;52725.06;2024584;29;32379;-63
2024/01/20 01:34:54;;;;;;;19.35;14.73;;;;;;;-146.25;100.00;52714.94;2024676;29;36777;-63
2024/01/20 01:35:56;;;;;;;24.65;15.27;;;;;;;-146.25;100.00;52684.50;2024485;29;33480;-63
2024/01/20 01:36:58;;;;;;;22.02;14.45;;;;;;;-146.25;100.00;52672.34;2025537;29;20891;-63
2024/01/20 01:38:00;;;;;;;22.75;15.10;;;;;;;-146.25;100.00;52704.78;2024388;29;35479;-63
2024/01/20 01:39:02;;;;;;;23.42;14.93;;;;;;;-146.25;100.00;52664.22;2024347;29;36713;-63
2024/01/20 01:40:08;;;;;;;20.98;14.55;;;;;;;-146.25;100.00;52678.44;2024732;29;30049;-63
2024/01/20 01:41:10;;;;;;;21.63;14.75;;;;;;;-146.25;100.00;52696.69;2024006;29;36494;-63
2024/01/20 01:42:12;;;;;;;25.02;14.57;;;;;;;-146.25;100.00;52696.69;2023402;29;37462;-63
2024/01/20 01:43:14;;;;;;;19.85;14.63;;;;;;;-146.25;100.00;52672.34;2024868;29;32711;-63
2024/01/20 01:44:15;;;;;;;22.00;15.93;;;;;;;-146.25;100.00;52676.41;2023909;29;36542;-63
2024/01/20 01:45:17;;;;;;;25.50;15.02;;;;;;;-146.25;100.00;52706.81;2025220;29;20930;-63
2024/01/20 01:46:19;;;;;;;22.30;15.30;;;;;;;-146.25;100.00;52688.56;2024397;29;36169;-64
2024/01/20 01:47:22;;;;;;;20.00;14.45;;;;;;;-146.25;100.00;52643.97;2024443;29;34186;-63
2024/01/20 01:48:24;;;;;;;23.90;15.77;;;;;;;-146.25;100.00;52676.41;2023836;29;33708;-63
2024/01/20 01:49:26;;;;;;;23.17;16.08;;;;;;;-146.25;100.00;52696.69;2023560;29;38409;-63
2024/01/20 01:50:28;;;;;;;25.65;16.75;;;;;;;-146.25;100.00;52668.28;2024920;29;32703;-63
2024/01/20 01:51:31;;;;;;;23.92;15.98;;;;;;;-146.25;100.00;52700.72;2016125;29;37118;-63
2024/01/20 01:52:33;;;;;;;31.70;17.65;;;;;;;-146.25;100.00;52696.69;2016161;29;36037;-63
2024/01/20 01:53:36;;;;;;;21.98;15.95;;;;;;;-146.25;100.00;52676.41;2024179;29;32114;-62
2024/01/20 01:54:38;;;;;;;25.52;17.65;;;;;;;-146.25;100.00;52674.38;2024226;29;35845;-62
2024/01/20 01:55:40;;;;;;;25.60;17.48;;;;;;;-146.25;100.00;52706.81;2024522;29;34593;-63
2024/01/20 01:56:47;;;;;;;27.83;17.75;;;;;;;-146.25;100.00;52690.59;2024105;29;35316;-63
2024/01/20 01:57:53;;;;;;;25.92;17.92;;;;;;;-146.25;100.00;52674.38;2024199;29;34894;-62
2024/01/20 01:58:56;;;;;;;25.17;17.42;;;;;;;-146.25;100.00;52688.56;2024251;29;34365;-63
2024/01/20 01:59:58;;;;;;;24.95;17.25;;;;;;;-146.25;100.00;52688.56;2023975;29;35879;-63
2024/01/20 02:01:00;;;;;;;24.90;17.55;;;;;;;-146.25;100.00;52664.22;2024488;29;35575;-62
2024/01/20 02:02:02;;;;;;;23.83;16.58;;;;;;;-146.25;100.00;52684.50;2023664;29;27054;-62
2024/01/20 02:03:04;;;;;;;32.45;17.52;;;;;;;-146.25;100.00;52692.63;2023730;29;36305;-62
2024/01/20 02:04:10;;;;;;;24.35;17.27;;;;;;;-146.25;100.00;52639.91;2024791;29;20048;-63
2024/01/20 02:05:12;;;;;;;27.58;16.80;;;;;;;-146.25;100.00;52696.69;2024109;29;34431;-63
2024/01/20 02:06:15;;;;;;;29.23;17.80;;;;;;;-146.25;100.00;52660.19;2024784;29;33559;-62
2024/01/20 02:07:17;;;;;;;21.00;17.33;;;;;;;-146.25;100.00;52680.47;2023697;29;34618;-63
2024/01/20 02:08:23;;;;;;;28.35;18.08;;;;;;;-146.25;100.00;52704.78;2024192;29;30380;-63
2024/01/20 02:09:25;;;;;;;30.50;18.60;;;;;;;-146.25;100.00;52676.41;2024424;29;35613;-63
2024/01/20 02:10:27;;;;;;;27.98;19.00;;;;;;;-146.25;100.00;52660.19;2023912;29;34637;-63
2024/01/20 02:11:30;;;;;;;22.88;18.23;;;;;;;-146.25;100.00;52684.50;2023989;29;25976;-63
2024/01/20 02:12:34;;;;;;;26.83;18.77;;;;;;;-146.25;100.00;52682.47;2024641;29;25310;-63
2024/01/20 02:13:36;;;;;;;24.85;18.45;;;;;;;-146.25;100.00;52664.22;2023710;29;29272;-63
2024/01/20 02:14:38;;;;;;;26.70;18.38;;;;;;;-146.25;100.00;52704.78;2023761;29;26551;-63
2024/01/20 02:15:40;;;;;;;31.08;18.92;;;;;;;-146.25;100.00;52629.75;2016073;29;31516;-63
2024/01/20 02:16:42;;;;;;;27.70;18.75;;;;;;;-146.25;100.00;52700.72;2016652;29;25761;-63
2024/01/20 02:17:52;;;;;;;30.55;19.63;;;;;;;-146.25;100.00;52670.31;2024272;29;33325;-62
2024/01/20 02:19:02;;;;;;;28.15;19.90;;;;;;;-146.25;100.00;52682.47;2024916;29;28940;-63
2024/01/20 02:20:05;;;;;;;34.30;20.13;;;;;;;-146.25;100.00;52637.88;2023796;29;36285;-62
2024/01/20 02:21:07;;;;;;;28.90;20.02;;;;;;;-146.25;100.00;52660.19;2023753;29;31396;-62
2024/01/20 02:22:15;;;;;;;31.13;20.17;;;;;;;-146.25;100.00;52680.47;2024310;29;39394;-62
2024/01/20 02:23:17;;;;;;;28.83;20.85;;;;;;;-146.25;100.00;52702.75;2024060;29;33126;-63
2024/01/20 02:24:19;;;;;;;29.92;20.33;;;;;;;-146.25;100.00;52656.13;2024266;29;33588;-63
2024/01/20 02:25:23;;;;;;;29.55;20.02;;;;;;;-146.25;100.00;52700.72;2024734;29;20048;-63
2024/01/20 02:26:32;;;;;;;33.65;20.55;;;;;;;-146.25;100.00;52708.84;2024199;29;37706;-63
2024/01/20 02:27:33;;;;;;;32.38;21.33;;;;;;;-146.25;100.00;52662.22;2024473;29;34387;-63
2024/01/20 02:28:35;;;;;;;30.23;20.85;;;;;;;-146.25;100.00;52678.44;2024325;29;32453;-63
2024/01/20 02:29:39;;;;;;;29.45;20.73;;;;;;;-146.25;100.00;52676.41;2023896;29;35595;-63
2024/01/20 02:30:45;;;;;;;31.50;22.20;;;;;;;-146.25;100.00;52696.69;2024192;29;20108;-63
2024/01/20 02:31:47;;;;;;;28.20;21.00;;;;;;;-146.25;100.00;52672.34;2016021;29;33613;-63
2024/01/20 02:32:48;;;;;;;29.15;21.08;;;;;;;-146.25;100.00;52645.97;2016614;29;35407;-63
2024/01/20 02:33:50;;;;;;;32.42;21.23;;;;;;;-146.25;100.00;52680.47;2024340;29;32618;-63
2024/01/20 02:34:52;;;;;;;32.72;21.60;;;;;;;-146.25;100.00;52672.34;2024155;29;39051;-63
2024/01/20 02:35:57;;;;;;;30.13;21.55;;;;;;;-146.25;100.00;52643.97;2024890;29;20041;-64
2024/01/20 02:36:59;;;;;;;31.52;21.48;;;;;;;-146.25;100.00;52672.34;2023720;29;34458;-63
2024/01/20 02:38:01;;;;;;;33.05;21.83;;;;;;;-146.25;100.00;52714.94;2024265;29;32962;-63
2024/01/20 02:39:03;;;;;;;32.50;21.25;;;;;;;-146.25;100.00;52672.34;2023989;29;35162;-63
2024/01/20 02:40:05;;;;;;;31.48;21.65;;;;;;;-146.25;100.00;52716.97;2024024;29;34889;-63
2024/01/20 02:41:07;;;;;;;33.10;20.83;;;;;;;-146.25;100.00;52684.50;2024503;29;20037;-63
2024/01/20 02:42:11;;;;;;;31.25;22.70;;;;;;;-146.25;100.00;52670.31;2024299;29;32881;-62
2024/01/20 02:43:13;;;;;;;34.58;22.67;;;;;;;-146.25;100.00;52684.50;2024068;29;36325;-63
2024/01/20 02:44:17;;;;;;;34.80;22.40;;;;;;;-146.25;100.00;52654.09;2024570;29;20076;-63
2024/01/20 02:45:19;;;;;;;29.75;22.35;;;;;;;-146.25;100.00;52686.53;2015757;29;35538;-63
2024/01/20 02:46:20;;;;;;;33.55;23.33;;;;;;;-146.25;100.00;52686.53;2015913;29;35672;-63
2024/01/20 02:47:22;;;;;;;35.55;22.48;;;;;;;-146.25;100.00;52704.78;2024025;29;34553;-63
2024/01/20 02:48:24;;;;;;;29.67;22.40;;;;;;;-146.25;100.00;52672.34;2024946;29;20052;-63
2024/01/20 02:49:26;;;;;;;38.53;23.27;;;;;;;-146.25;100.00;52682.47;2024039;29;38827;-63
2024/01/20 02:50:28;;;;;;;30.38;21.65;;;;;;;-146.25;100.00;52729.13;2024144;29;36306;-63
2024/01/20 02:51:29;;;;;;;28.63;20.65;;;;;;;-146.25;100.00;52668.28;2024235;29;34414;-63
2024/01/20 02:52:33;;;;;;;38.03;22.20;;;;;;;-146.25;100.00;52658.16;2024280;29;34513;-63
2024/01/20 02:53:35;;;;;;;32.30;21.40;;;;;;;-146.25;100.00;52674.38;2024542;29;20045;-63
2024/01/20 02:54:36;;;;;;;31.73;21.80;;;;;;;-146.25;100.00;52654.09;2024661;29;33659;-63
2024/01/20 02:55:38;;;;;;;35.40;22.10;;;;;;;-146.25;100.00;52712.91;2023777;29;34275;-63
2024/01/20 02:56:40;;;;;;;33.25;22.30;;;;;;;-146.25;100.00;52684.50;2024075;29;36198;-63
2024/01/20 02:57:42;;;;;;;33.03;22.17;;;;;;;-146.25;100.00;52674.38;2024529;29;36496;-63
2024/01/20 02:58:43;;;;;;;33.67;23.08;;;;;;;-146.25;100.00;52680.47;2024898;29;20775;-63
2024/01/20 02:59:45;;;;;;;32.75;22.20;;;;;;;-146.25;100.00;52733.19;2023810;29;36646;-64
2024/01/20 03:00:47;;;;;;;32.55;21.85;;;;;;;-146.25;100.00;52676.41;2022891;29;32671;-64
2024/01/20 03:01:49;;;;;;;34.75;23.15;;;;;;;-146.25;100.00;52686.53;2023563;29;33586;-63
2024/01/20 03:02:51;;;;;;;33.85;22.33;;;;;;;-146.25;100.00;52698.72;2024098;29;38020;-63
2024/01/20 03:03:52;;;;;;;34.85;23.17;;;;;;;-146.25;100.00;52676.41;2024733;29;20077;-63
2024/01/20 03:04:59;;;;;;;34.78;23.35;;;;;;;-146.25;100.00;52680.47;2024039;29;36497;-64
2024/01/20 03:06:03;;;;;;;31.38;22.35;;;;;;;-146.25;100.00;52664.22;2024974;29;20045;-63
2024/01/20 03:07:05;;;;;;;34.50;21.90;;;;;;;-146.25;100.00;52729.13;2023958;29;35758;-63
2024/01/20 03:08:09;;;;;;;33.20;20.77;;;;;;;-146.25;100.00;52660.19;2024443;29;20045;-63
2024/01/20 03:09:14;;;;;;;29.83;22.38;;;;;;;-146.25;100.00;52694.66;2023933;29;35382;-62
2024/01/20 03:10:16;;;;;;;32.47;21.77;;;;;;;-146.25;100.00;52692.63;2024098;29;38218;-63
2024/01/20 03:11:20;;;;;;;31.02;22.10;;;;;;;-146.25;100.00;52706.81;2024695;29;20981;-64
2024/01/20 03:12:22;;;;;;;33.13;22.55;;;;;;;-146.25;100.00;52680.47;2024276;29;22208;-63
2024/01/20 03:13:24;;;;;;;31.83;22.30;;;;;;;-146.25;100.00;52678.44;2024311;29;30280;-63
2024/01/20 03:14:26;;;;;;;34.95;22.77;;;;;;;-146.25;100.00;52690.59;2023972;29;20831;-63
2024/01/20 03:15:28;;;;;;;30.15;22.10;;;;;;;-146.25;100.00;52668.28;2023900;29;20883;-63
2024/01/20 03:16:32;;;;;;;29.35;21.35;;;;;;;-146.25;100.00;52702.75;2024538;29;24305;-63
2024/01/20 03:17:34;;;;;;;31.02;21.98;;;;;;;-146.25;100.00;52674.38;2024063;29;32987;-63
2024/01/20 03:18:37;;;;;;;32.38;22.45;;;;;;;-146.25;100.00;52664.22;2024696;29;20136;-63
2024/01/20 03:19:39;;;;;;;32.65;22.10;;;;;;;-146.25;100.00;52706.81;2024223;29;37390;-63
2024/01/20 03:20:43;;;;;;;33.88;22.35;;;;;;;-146.25;100.00;52696.69;2023714;29;34935;-63
2024/01/20 03:21:45;;;;;;;35.75;22.20;;;;;;;-146.25;100.00;52662.22;2023620;29;33033;-64
2024/01/20 03:22:46;;;;;;;33.17;22.30;;;;;;;-146.25;100.00;52700.72;2023320;29;37429;-64
2024/01/20 03:23:48;;;;;;;32.13;22.08;;;;;;;-146.25;100.00;52668.28;2024308;29;20148;-63
2024/01/20 03:24:50;;;;;;;29.67;21.42;;;;;;;-146.25;100.00;52666.25;2024332;29;30499;-63
2024/01/20 03:25:54;;;;;;;31.80;20.95;;;;;;;-146.25;100.00;52652.06;2023983;29;35667;-64
2024/01/20 03:26:56;;;;;;;32.28;21.95;;;;;;;-146.25;100.00;52670.31;2024500;29;20732;-63
2024/01/20 03:28:00;;;;;;;29.60;21.83;;;;;;;-146.25;100.00;52670.31;2024015;29;35595;-63
2024/01/20 03:29:02;;;;;;;30.05;21.15;;;;;;;-146.25;100.00;52680.47;2024650;29;20830;-64
2024/01/20 03:30:05;;;;;;;29.95;20.25;;;;;;;-146.25;100.00;52676.41;2023630;29;35062;-64
2024/01/20 03:31:11;;;;;;;29.00;21.35;;;;;;;-146.25;100.00;52710.88;2023941;29;33982;-63
2024/01/20 03:32:13;;;;;;;33.03;21.00;;;;;;;-146.25;100.00;52696.69;2023988;29;35487;-63
2024/01/20 03:33:14;;;;;;;33.28;20.92;;;;;;;-146.25;100.00;52704.78;2023992;29;37175;-64
2024/01/20 03:34:16;;;;;;;32.17;20.80;;;;;;;-146.25;100.00;52670.31;2024525;29;20156;-64
2024/01/20 03:35:18;;;;;;;27.85;20.38;;;;;;;-146.25;100.00;52645.97;2023705;29;32997;-63
2024/01/20 03:36:21;;;;;;;32.22;20.83;;;;;;;-146.25;100.00;52733.19;2023503;29;38371;-63
2024/01/20 03:37:26;;;;;;;31.02;19.98;;;;;;;-146.25;100.00;52680.47;2023225;29;20057;-63
2024/01/20 03:38:27;;;;;;;31.42;20.50;;;;;;;-146.25;100.00;52666.25;2022644;29;36881;-63
2024/01/20 03:39:29;;;;;;;34.28;20.67;;;;;;;-146.25;100.00;52690.59;2023602;29;35781;-63
2024/01/20 03:40:31;;;;;;;29.10;20.55;;;;;;;-146.25;100.00;52686.53;2024006;29;32268;-63
2024/01/20 03:41:33;;;;;;;32.45;21.15;;;;;;;-146.25;100.00;52733.19;2023681;29;34220;-64
2024/01/20 03:42:35;;;;;;;31.05;20.60;;;;;;;-146.25;100.00;52670.31;2024679;29;20164;-63
2024/01/20 03:43:37;;;;;;;30.15;19.63;;;;;;;-146.25;100.00;52696.69;2024105;29;26943;-63
2024/01/20 03:44:41;;;;;;;34.72;20.95;;;;;;;-146.25;100.00;52682.47;2023753;29;34207;-64
2024/01/20 03:45:43;;;;;;;32.13;19.70;;;;;;;-146.25;100.00;52654.09;2023500;29;33950;-63
2024/01/20 03:46:45;;;;;;;29.00;20.02;;;;;;;-146.25;100.00;52674.38;2024020;29;37258;-63
2024/01/20 03:47:49;;;;;;;28.70;20.35;;;;;;;-146.25;100.00;52672.34;2023589;29;37668;-63
2024/01/20 03:48:53;;;;;;;28.67;20.42;;;;;;;-146.25;100.00;52678.44;2023085;29;30867;-63
2024/01/20 03:49:55;;;;;;;32.25;19.85;;;;;;;-146.25;100.00;52688.56;2023613;29;36312;-63
2024/01/20 03:50:57;;;;;;;28.98;20.13;;;;;;;-146.25;100.00;52702.75;2023937;29;20109;-63
2024/01/20 03:51:59;;;;;;;29.23;20.17;;;;;;;-146.25;100.00;52672.34;2015531;29;32219;-64
2024/01/20 03:53:00;;;;;;;30.75;19.35;;;;;;;-146.25;100.00;52672.34;2015910;29;34385;-64
2024/01/20 03:54:04;;;;;;;27.35;20.00;;;;;;;-146.25;100.00;52696.69;2024075;29;32580;-64
2024/01/20 03:55:06;;;;;;;31.33;19.05;;;;;;;-146.25;100.00;52723.03;2023853;29;37177;-64
2024/01/20 03:56:08;;;;;;;31.50;20.02;;;;;;;-146.25;100.00;52678.44;2024266;29;20879;-64
2024/01/20 03:57:10;;;;;;;26.13;19.58;;;;;;;-146.25;100.00;52631.78;2023858;29;36691;-64
2024/01/20 03:58:14;;;;;;;28.38;18.88;;;;;;;-146.25;100.00;52678.44;2024357;29;20235;-64
2024/01/20 03:59:18;;;;;;;26.23;18.92;;;;;;;-146.25;100.00;52718.97;2023917;29;33129;-63
2024/01/20 04:00:20;;;;;;;27.20;19.60;;;;;;;-146.25;100.00;52714.94;2023669;29;32995;-63
2024/01/20 04:01:21;;;;;;;29.80;19.42;;;;;;;-146.25;100.00;52686.53;2023601;29;33229;-64
2024/01/20 04:02:24;;;;;;;35.47;19.65;;;;;;;-146.25;100.00;52652.06;2023707;29;34960;-63
2024/01/20 04:03:25;;;;;;;28.20;19.50;;;;;;;-146.25;100.00;52668.28;2024277;29;20076;-64
2024/01/20 04:04:27;;;;;;;29.90;18.63;;;;;;;-146.25;100.00;52692.63;2023948;29;34108;-64
2024/01/20 04:05:29;;;;;;;28.58;19.10;;;;;;;-146.25;100.00;52690.59;2023777;29;36606;-64
2024/01/20 04:06:32;;;;;;;32.50;19.90;;;;;;;-146.25;100.00;52656.13;2023957;29;31567;-63
2024/01/20 04:07:34;;;;;;;32.83;20.27;;;;;;;-146.25;100.00;52668.28;2024503;29;20954;-64
2024/01/20 04:08:36;;;;;;;30.63;19.65;;;;;;;-146.25;100.00;52696.69;2024414;29;20060;-64
2024/01/20 04:09:38;;;;;;;30.13;19.75;;;;;;;-146.25;100.00;52694.66;2023949;29;31533;-64
2024/01/20 04:10:42;;;;;;;32.03;20.83;;;;;;;-146.25;100.00;52716.97;2023605;29;37043;-63
2024/01/20 04:11:46;;;;;;;29.52;19.90;;;;;;;-146.25;100.00;52698.72;2024084;29;26127;-64
2024/01/20 04:12:48;;;;;;;32.72;19.95;;;;;;;-146.25;100.00;52686.53;2023792;29;22949;-64
2024/01/20 04:13:50;;;;;;;28.98;20.05;;;;;;;-146.25;100.00;52676.41;2024397;29;20052;-64
2024/01/20 04:14:58;;;;;;;30.48;19.25;;;;;;;-146.25;100.00;52674.38;2023746;29;20926;-63
2024/01/20 04:16:00;;;;;;;32.10;19.92;;;;;;;-146.25;100.00;52680.47;2023362;29;30693;-64
2024/01/20 04:17:05;;;;;;;27.20;19.13;;;;;;;-146.25;100.00;52686.53;2023578;29;20997;-62
2024/01/20 04:18:08;;;;;;;29.23;19.63;;;;;;;-146.25;100.00;52721.00;2023744;29;20165;-63
2024/01/20 04:19:10;;;;;;;29.33;19.30;;;;;;;-146.25;100.00;52670.31;2023264;29;32691;-64
2024/01/20 04:20:12;;;;;;;32.38;19.77;;;;;;;-146.25;100.00;52674.38;2023569;29;38015;-64
2024/01/20 04:21:14;;;;;;;29.63;19.83;;;;;;;-146.25;100.00;52674.38;2023917;29;34255;-64
2024/01/20 04:22:18;;;;;;;32.35;19.58;;;;;;;-146.25;100.00;52684.50;2023672;29;37291;-64
2024/01/20 04:23:19;;;;;;;30.27;19.70;;;;;;;-146.25;100.00;52692.63;2023744;29;32866;-64
2024/01/20 04:24:21;;;;;;;31.88;20.15;;;;;;;-146.25;100.00;52690.59;2022680;29;37206;-63
2024/01/20 04:25:23;;;;;;;35.17;20.65;;;;;;;-146.25;100.00;52668.28;2023288;29;32532;-64
2024/01/20 04:26:25;;;;;;;32.05;19.75;;;;;;;-146.25;100.00;52696.69;2024161;29;31426;-64
2024/01/20 04:27:27;;;;;;;31.48;20.83;;;;;;;-146.25;100.00;52688.56;2023439;29;37076;-64
2024/01/20 04:28:29;;;;;;;32.78;20.92;;;;;;;-146.25;100.00;52700.72;2024500;29;20053;-63
2024/01/20 04:29:31;;;;;;;32.20;19.60;;;;;;;-146.25;100.00;52706.81;2023781;29;31833;-64
2024/01/20 04:30:33;;;;;;;32.15;20.63;;;;;;;-146.25;100.00;52731.16;2023290;29;34128;-64
2024/01/20 04:31:35;;;;;;;33.50;21.35;;;;;;;-146.25;100.00;52684.50;2024219;29;20045;-64
2024/01/20 04:32:37;;;;;;;34.30;20.73;;;;;;;-146.25;100.00;52645.97;2023631;29;36601;-63
2024/01/20 04:33:40;;;;;;;30.40;20.02;;;;;;;-146.25;100.00;52672.34;2023606;29;39014;-63
2024/01/20 04:34:42;;;;;;;32.08;20.98;;;;;;;-146.25;100.00;52694.66;2023241;29;34422;-64
2024/01/20 04:35:44;;;;;;;33.00;21.00;;;;;;;-146.25;100.00;52680.47;2023361;29;38464;-64
2024/01/20 04:36:46;;;;;;;32.92;20.80;;;;;;;-146.25;100.00;52684.50;2024209;29;20041;-64
2024/01/20 04:37:47;;;;;;;35.70;21.77;;;;;;;-146.25;100.00;52696.69;2023625;29;36131;-63